Chos Malal Airport


Codes: SAHC/HOS
Name: Chos Malal Airport
City: Chos Malal
Country: Argentina
Elevation: 2788 ft.

Photos at Chos Malal Airport


   Photos courtesy of SpottingLog. You can add your own sightings and photos by signing up for a free trial today.



No photos found.

Weather at Chos Malal Airport


Time (UTC)DescriptionTempratureWindCloud coverageVisibilityPressureHumidity
16-Jun-2024 00:00Overcast Clouds8°C7 mph, NW100%10000m1020hPa72%
16-Jun-2024 03:00Overcast Clouds7°C7 mph, NW100%10000m1020hPa73%
16-Jun-2024 06:00Broken Clouds6°C7 mph, NW73%10000m1021hPa71%
16-Jun-2024 09:00Clear Sky4°C7 mph, NW3%10000m1021hPa68%
16-Jun-2024 12:00Clear Sky4°C4 mph, NW3%10000m1021hPa67%
16-Jun-2024 15:00Clear Sky8°C4 mph, NW0%10000m1020hPa52%
16-Jun-2024 18:00Clear Sky11°C4 mph, NW3%10000m1016hPa44%
16-Jun-2024 21:00Broken Clouds11°C2 mph, NW72%10000m1014hPa49%
17-Jun-2024 00:00Overcast Clouds8°C7 mph, NW86%10000m1017hPa69%
17-Jun-2024 03:00Scattered Clouds6°C7 mph, NW38%10000m1017hPa73%
17-Jun-2024 06:00Few Clouds5°C7 mph, NW24%10000m1016hPa70%
17-Jun-2024 09:00Overcast Clouds4°C7 mph, NW99%10000m1013hPa65%
17-Jun-2024 12:00Overcast Clouds4°C7 mph, NW90%10000m1012hPa62%
17-Jun-2024 15:00Clear Sky10°C11 mph, NW10%10000m1007hPa36%
17-Jun-2024 18:00Scattered Clouds10°C18 mph, W38%10000m1006hPa52%
17-Jun-2024 21:00Light Rain6°C11 mph, NW95%10000m1009hPa83%
18-Jun-2024 00:00Light Rain5°C11 mph, NW70%10000m1009hPa90%
18-Jun-2024 03:00Scattered Clouds5°C11 mph, NW36%10000m1008hPa82%
18-Jun-2024 06:00Light Rain4°C7 mph, NW35%10000m1009hPa97%
18-Jun-2024 09:00Scattered Clouds4°C7 mph, NW44%10000m1008hPa84%
18-Jun-2024 12:00Scattered Clouds4°C9 mph, NW37%10000m1009hPa75%
18-Jun-2024 15:00Light Rain7°C9 mph, W16%10000m1009hPa60%
18-Jun-2024 18:00Light Rain7°C16 mph, NW43%10000m1009hPa70%
18-Jun-2024 21:00Light Rain7°C9 mph, NW10%10000m1009hPa71%
19-Jun-2024 00:00Few Clouds5°C9 mph, NW15%10000m1013hPa81%
19-Jun-2024 03:00Light Rain3°C9 mph, NW67%10000m1015hPa91%
19-Jun-2024 06:00Scattered Clouds3°C9 mph, NW37%10000m1016hPa73%
19-Jun-2024 09:00Few Clouds2°C9 mph, NW16%10000m1018hPa70%
19-Jun-2024 12:00Clear Sky2°C7 mph, NW9%10000m1020hPa71%
19-Jun-2024 15:00Clear Sky5°C7 mph, NW0%10000m1020hPa56%
19-Jun-2024 18:00Clear Sky7°C7 mph, NW0%10000m1018hPa51%
19-Jun-2024 21:00Clear Sky6°C4 mph, NW2%10000m1019hPa60%
20-Jun-2024 00:00Clear Sky4°C4 mph, NW9%10000m1020hPa69%
20-Jun-2024 03:00Overcast Clouds3°C4 mph, NW100%10000m1021hPa71%
20-Jun-2024 06:00Overcast Clouds3°C4 mph, NW100%10000m1019hPa69%
20-Jun-2024 09:00Overcast Clouds2°C4 mph, NW100%10000m1017hPa70%
20-Jun-2024 12:00Overcast Clouds2°C2 mph, NW97%10000m1018hPa70%
20-Jun-2024 15:00Overcast Clouds4°C0 mph, NE99%10000m1016hPa60%
20-Jun-2024 18:00Overcast Clouds6°C2 mph, NW99%10000m1013hPa59%
20-Jun-2024 21:00Overcast Clouds6°C0 mph, SE100%10000m1013hPa68%